createdAt,value
2022-08-22T00:02:45.527Z,79.78
2022-08-22T00:02:58.997Z,84.56
2022-08-22T00:06:42.478Z,85.37
2022-08-22T00:10:03.587Z,84.90
2022-08-22T00:13:19.916Z,88.44
2022-08-22T00:16:41.459Z,87.91
2022-08-22T00:20:07.998Z,87.89
2022-08-22T00:23:39.062Z,87.76
2022-08-22T00:26:54.930Z,87.58
2022-08-22T00:30:12.887Z,87.51
2022-08-22T00:33:37.055Z,86.83
2022-08-22T00:36:51.499Z,86.70
2022-08-22T00:40:22.394Z,86.17
2022-08-22T00:44:40.837Z,85.60
2022-08-22T00:48:06.204Z,86.33
2022-08-22T00:52:03.530Z,86.09
2022-08-22T00:55:39.560Z,85.74
2022-08-22T00:59:26.448Z,85.61
2022-08-22T01:02:52.553Z,85.07
2022-08-22T01:06:25.128Z,85.67
2022-08-22T01:09:50.001Z,85.48
2022-08-22T01:13:23.446Z,85.58
2022-08-22T01:17:08.284Z,86.73
2022-08-22T01:21:13.655Z,87.76
2022-08-22T01:25:25.892Z,87.29
2022-08-22T01:29:33.532Z,87.68
2022-08-22T01:33:37.738Z,87.00
2022-08-22T01:37:20.051Z,86.36
2022-08-22T01:41:11.972Z,85.55
2022-08-22T01:44:49.878Z,84.96
2022-08-22T01:48:09.502Z,84.65
2022-08-22T01:51:25.971Z,84.14
2022-08-22T01:54:52.418Z,84.31
2022-08-22T01:58:03.827Z,83.69
2022-08-22T02:01:35.794Z,84.17
2022-08-22T02:04:56.050Z,84.21
2022-08-22T02:08:09.021Z,83.98
2022-08-22T02:11:52.066Z,84.20
2022-08-22T02:15:24.456Z,83.69
2022-08-22T02:18:50.330Z,84.28
2022-08-22T02:22:10.198Z,84.31
2022-08-22T02:25:27.147Z,84.12
2022-08-22T02:28:57.239Z,84.22
2022-08-22T02:32:18.512Z,84.09
2022-08-22T02:35:35.747Z,84.02
2022-08-22T02:39:00.503Z,84.26
2022-08-22T02:42:26.176Z,84.09
2022-08-22T02:45:47.110Z,83.87
2022-08-22T02:49:10.348Z,83.71
2022-08-22T02:52:24.469Z,84.21
2022-08-22T02:55:46.684Z,84.24
2022-08-22T02:59:00.108Z,84.77
2022-08-22T03:02:39.577Z,84.99
2022-08-22T03:06:01.276Z,84.84
2022-08-22T03:09:27.780Z,84.46
2022-08-22T03:12:45.838Z,84.96
2022-08-22T03:16:02.544Z,84.98
2022-08-22T03:19:25.409Z,84.60
2022-08-22T03:22:47.532Z,84.38
2022-08-22T03:26:07.655Z,84.87
2022-08-22T03:29:23.420Z,84.95
2022-08-22T03:33:00.696Z,84.76
2022-08-22T03:36:28.467Z,84.36
2022-08-22T03:40:00.614Z,83.84
2022-08-22T03:43:42.190Z,84.03
2022-08-22T03:47:41.231Z,84.02
2022-08-22T03:51:36.044Z,84.11
2022-08-22T03:55:24.084Z,83.98
2022-08-22T03:59:36.953Z,84.16
2022-08-22T04:03:40.447Z,83.80
2022-08-22T04:07:39.399Z,83.92
2022-08-22T04:11:22.187Z,83.15
2022-08-22T04:15:11.153Z,82.97
2022-08-22T04:19:12.483Z,83.17
2022-08-22T04:22:47.534Z,82.71
2022-08-22T04:26:12.290Z,82.78
2022-08-22T04:29:35.954Z,82.59
2022-08-22T04:32:52.105Z,82.22
2022-08-22T04:36:08.370Z,82.36
2022-08-22T04:39:29.324Z,81.93
2022-08-22T04:42:45.263Z,81.80
2022-08-22T04:46:08.428Z,81.96
2022-08-22T04:49:29.149Z,82.45
2022-08-22T04:52:56.518Z,81.92
2022-08-22T04:56:28.933Z,82.61
2022-08-22T04:59:42.587Z,81.93
2022-08-22T05:02:59.450Z,82.71
2022-08-22T05:06:11.179Z,82.48
2022-08-22T05:09:25.649Z,82.59
2022-08-22T05:12:39.906Z,82.75
2022-08-22T05:15:57.946Z,82.85
2022-08-22T05:19:16.441Z,82.37
2022-08-22T05:22:31.698Z,82.55
2022-08-22T05:25:44.309Z,82.10
2022-08-22T05:28:56.977Z,81.88
2022-08-22T05:32:14.813Z,82.10
2022-08-22T05:35:37.072Z,82.58
2022-08-22T05:38:54.178Z,82.24
2022-08-22T05:42:05.309Z,82.57
2022-08-22T05:45:14.801Z,82.32
2022-08-22T05:48:36.034Z,82.66
2022-08-22T05:51:57.718Z,81.98
2022-08-22T05:55:24.460Z,82.07
2022-08-22T05:58:57.193Z,81.98
2022-08-22T06:02:15.007Z,81.61
2022-08-22T06:05:31.181Z,81.99
2022-08-22T06:08:44.828Z,81.69
2022-08-22T06:12:02.373Z,81.94
2022-08-22T06:15:24.235Z,82.29
2022-08-22T06:18:34.553Z,82.23
2022-08-22T06:21:45.235Z,82.57
2022-08-22T06:24:56.827Z,82.58
2022-08-22T06:28:10.365Z,82.53
2022-08-22T06:31:25.282Z,82.46
2022-08-22T06:34:40.823Z,82.02
2022-08-22T06:37:53.536Z,81.17
2022-08-22T06:41:07.077Z,80.67
2022-08-22T06:44:18.865Z,79.83
2022-08-22T06:47:31.750Z,80.27
2022-08-22T06:50:42.933Z,81.35
2022-08-22T06:54:05.319Z,80.32
2022-08-22T06:57:34.755Z,80.39
2022-08-22T07:00:58.861Z,80.33
2022-08-22T07:04:14.725Z,80.50
2022-08-22T07:07:27.089Z,80.31
2022-08-22T07:10:35.863Z,80.31
2022-08-22T07:13:53.125Z,80.10
2022-08-22T07:17:05.755Z,80.69
2022-08-22T07:20:28.169Z,80.69
2022-08-22T07:23:41.247Z,80.69
2022-08-22T07:27:13.459Z,80.68
2022-08-22T07:30:28.092Z,80.50
2022-08-22T07:33:56.361Z,80.78
2022-08-22T07:37:09.797Z,79.83
2022-08-22T07:40:28.625Z,80.23
2022-08-22T07:43:48.037Z,80.22
2022-08-22T07:47:04.282Z,79.26
2022-08-22T07:50:22.689Z,79.27
2022-08-22T07:53:42.582Z,78.92
2022-08-22T07:56:59.854Z,78.82
2022-08-22T08:00:18.548Z,78.38
2022-08-22T08:03:30.098Z,78.54
2022-08-22T08:06:37.141Z,78.21
2022-08-22T08:09:53.117Z,78.67
2022-08-22T08:13:12.730Z,78.56
2022-08-22T08:16:30.765Z,78.18
2022-08-22T08:19:43.233Z,78.62
2022-08-22T08:22:58.200Z,78.10
2022-08-22T08:26:13.377Z,78.48
2022-08-22T08:29:19.109Z,79.08
2022-08-22T08:32:37.539Z,79.07
2022-08-22T08:36:03.234Z,78.83
2022-08-22T08:39:24.343Z,79.41
2022-08-22T08:43:20.254Z,79.57
2022-08-22T08:47:21.929Z,79.78
2022-08-22T08:50:57.637Z,80.05
2022-08-22T08:54:50.393Z,80.40
2022-08-22T08:58:24.366Z,80.71
2022-08-22T09:02:23.506Z,80.47
2022-08-22T09:06:09.537Z,80.77
2022-08-22T09:09:52.496Z,80.13
2022-08-22T09:13:40.904Z,80.41
2022-08-22T09:17:22.872Z,80.10
2022-08-22T09:21:27.954Z,80.16
2022-08-22T09:25:19.623Z,80.25
2022-08-22T09:28:42.669Z,79.60
2022-08-22T09:32:15.012Z,79.94
2022-08-22T09:35:46.758Z,79.36
2022-08-22T09:39:08.931Z,79.80
2022-08-22T09:42:38.661Z,79.47
2022-08-22T09:46:18.787Z,79.65
2022-08-22T09:49:49.632Z,79.04
2022-08-22T09:53:19.607Z,79.46
2022-08-22T09:56:45.476Z,78.76
2022-08-22T10:00:16.582Z,78.75
2022-08-22T10:04:19.440Z,78.88
2022-08-22T10:08:05.178Z,78.72
2022-08-22T10:11:30.900Z,79.12
2022-08-22T10:15:06.816Z,78.91
2022-08-22T10:18:35.091Z,78.35
2022-08-22T10:22:19.096Z,78.61
2022-08-22T10:25:42.136Z,78.82
2022-08-22T10:29:00.420Z,79.06
2022-08-22T10:32:31.872Z,79.39
2022-08-22T10:35:50.992Z,79.34
2022-08-22T10:39:09.469Z,79.96
2022-08-22T10:42:35.544Z,79.99
2022-08-22T10:45:50.546Z,79.63
2022-08-22T10:49:05.691Z,79.83
2022-08-22T10:52:26.171Z,79.64
2022-08-22T10:55:33.358Z,80.25
2022-08-22T10:58:51.479Z,79.59
2022-08-22T11:02:42.194Z,79.35
2022-08-22T11:05:53.827Z,79.37
2022-08-22T11:09:32.158Z,78.93
2022-08-22T11:13:03.345Z,79.85
2022-08-22T11:16:42.857Z,79.79
2022-08-22T11:20:28.293Z,78.96
2022-08-22T11:23:52.444Z,79.54
2022-08-22T11:27:13.026Z,78.95
2022-08-22T11:30:43.902Z,78.67
2022-08-22T11:34:02.319Z,78.91
2022-08-22T11:37:42.294Z,78.40
2022-08-22T11:41:05.758Z,78.16
2022-08-22T11:44:22.252Z,78.53
2022-08-22T11:47:39.862Z,78.30
2022-08-22T11:51:13.600Z,78.53
2022-08-22T11:54:51.881Z,78.89
2022-08-22T11:58:29.472Z,78.19
2022-08-22T12:01:50.594Z,78.11
2022-08-22T12:05:07.359Z,76.74
2022-08-22T12:08:52.437Z,76.89
2022-08-22T12:12:33.270Z,76.30
2022-08-22T12:15:56.948Z,76.82
2022-08-22T12:19:22.966Z,77.03
2022-08-22T12:23:19.271Z,76.69
2022-08-22T12:26:43.986Z,75.77
2022-08-22T12:30:13.939Z,75.17
2022-08-22T12:33:57.430Z,73.31
2022-08-22T12:37:21.570Z,72.62
2022-08-22T12:40:52.485Z,72.91
2022-08-22T12:44:21.323Z,72.67
2022-08-22T12:47:58.547Z,72.99
2022-08-22T12:51:31.969Z,72.70
2022-08-22T12:55:14.908Z,73.13
2022-08-22T12:58:44.512Z,73.89
2022-08-22T13:02:03.883Z,73.40
2022-08-22T13:05:24.752Z,73.21
2022-08-22T13:08:45.970Z,74.12
2022-08-22T13:12:02.398Z,73.61
2022-08-22T13:15:29.629Z,74.36
2022-08-22T13:18:53.584Z,74.72
2022-08-22T13:22:13.598Z,73.63
2022-08-22T13:25:29.814Z,73.41
2022-08-22T13:28:45.138Z,72.93
2022-08-22T13:32:02.334Z,72.64
2022-08-22T13:35:14.002Z,72.56
2022-08-22T13:38:29.894Z,72.68
2022-08-22T13:41:47.998Z,72.32
2022-08-22T13:45:02.507Z,73.10
2022-08-22T13:48:17.039Z,73.68
2022-08-22T13:51:34.766Z,72.87
2022-08-22T13:54:59.847Z,73.48
2022-08-22T13:58:23.295Z,74.50
2022-08-22T14:01:53.020Z,73.82
2022-08-22T14:05:11.271Z,73.21
2022-08-22T14:08:25.793Z,73.72
2022-08-22T14:11:46.574Z,74.03
2022-08-22T14:15:01.768Z,75.15
2022-08-22T14:18:30.290Z,75.67
2022-08-22T14:21:46.047Z,75.74
2022-08-22T14:24:59.377Z,75.86
2022-08-22T14:28:29.289Z,75.73
2022-08-22T14:31:38.990Z,75.62
2022-08-22T14:34:51.770Z,76.57
2022-08-22T14:38:30.269Z,76.63
2022-08-22T14:41:55.739Z,76.46
2022-08-22T14:45:17.539Z,76.22
2022-08-22T14:48:32.669Z,75.58
2022-08-22T14:51:41.800Z,75.73
2022-08-22T14:54:47.387Z,75.74
2022-08-22T14:58:03.508Z,76.29
2022-08-22T15:01:21.856Z,76.50
2022-08-22T15:04:40.012Z,76.50
2022-08-22T15:07:54.906Z,76.86
2022-08-22T15:11:26.175Z,76.78
2022-08-22T15:14:52.408Z,77.48
2022-08-22T15:18:38.999Z,77.00
2022-08-22T15:21:45.046Z,76.98
2022-08-22T15:25:05.595Z,77.18
2022-08-22T15:28:20.820Z,78.48
2022-08-22T15:31:28.020Z,78.00
2022-08-22T15:34:47.782Z,78.23
2022-08-22T15:38:03.451Z,78.53
2022-08-22T15:41:44.135Z,78.71
2022-08-22T15:44:50.748Z,78.36
2022-08-22T15:48:04.366Z,78.49
2022-08-22T15:51:36.185Z,78.55
2022-08-22T15:55:22.146Z,78.71
2022-08-22T15:58:28.471Z,78.55
2022-08-22T16:01:52.351Z,78.75
2022-08-22T16:05:27.633Z,79.40
2022-08-22T16:08:54.371Z,78.58
2022-08-22T16:12:09.406Z,79.03
2022-08-22T16:15:56.865Z,78.42
2022-08-22T16:19:26.130Z,78.77
2022-08-22T16:23:10.706Z,78.02
2022-08-22T16:26:22.591Z,78.55
2022-08-22T16:29:41.808Z,79.12
2022-08-22T16:33:00.026Z,79.67
2022-08-22T16:36:47.382Z,79.88
2022-08-22T16:40:14.470Z,80.13
2022-08-22T16:43:24.912Z,80.27
2022-08-22T16:46:48.120Z,80.15
2022-08-22T16:50:09.484Z,80.41
2022-08-22T16:54:20.217Z,80.35
2022-08-22T16:57:37.467Z,80.91
2022-08-22T17:00:59.065Z,81.37
2022-08-22T17:04:26.908Z,81.55
2022-08-22T17:08:01.929Z,81.30
2022-08-22T17:11:34.479Z,81.82
2022-08-22T17:14:57.532Z,81.49
2022-08-22T17:18:33.327Z,81.18
2022-08-22T17:21:53.652Z,81.67
2022-08-22T17:25:22.825Z,80.94
2022-08-22T17:28:44.767Z,81.03
2022-08-22T17:32:06.084Z,81.07
2022-08-22T17:35:43.473Z,81.41
2022-08-22T17:39:10.973Z,80.89
2022-08-22T17:42:53.933Z,80.73
2022-08-22T17:46:38.905Z,80.19
2022-08-22T17:50:00.130Z,80.17
2022-08-22T17:53:19.201Z,80.37
2022-08-22T17:56:42.339Z,80.85
2022-08-22T17:59:58.939Z,80.95
2022-08-22T18:03:18.082Z,80.55
2022-08-22T18:06:32.661Z,79.96
2022-08-22T18:09:52.179Z,80.73
2022-08-22T18:13:10.123Z,79.89
2022-08-22T18:16:38.344Z,79.69
2022-08-22T18:20:04.194Z,80.11
2022-08-22T18:23:35.635Z,80.15
2022-08-22T18:27:03.625Z,80.17
2022-08-22T18:30:22.592Z,80.59
2022-08-22T18:33:40.641Z,80.31
2022-08-22T18:37:05.044Z,80.78
2022-08-22T18:40:28.160Z,80.70
2022-08-22T18:43:51.367Z,81.08
2022-08-22T18:47:00.899Z,81.10
2022-08-22T18:50:33.285Z,81.62
2022-08-22T18:53:47.715Z,81.38
2022-08-22T18:57:06.510Z,81.45
2022-08-22T19:00:28.550Z,81.29
2022-08-22T19:04:07.389Z,80.96
2022-08-22T19:07:43.503Z,81.39
2022-08-22T19:11:22.684Z,81.24
2022-08-22T19:15:10.981Z,81.33
2022-08-22T19:18:47.439Z,80.93
2022-08-22T19:22:24.876Z,81.90
2022-08-22T19:25:31.252Z,81.87
2022-08-22T19:28:44.106Z,82.21
2022-08-22T19:31:53.776Z,82.00
2022-08-22T19:35:30.844Z,81.55
2022-08-22T19:39:01.538Z,81.27
2022-08-22T19:42:33.968Z,81.59
2022-08-22T19:45:43.941Z,81.66
2022-08-22T19:48:54.530Z,82.62
2022-08-22T19:52:34.030Z,82.53
2022-08-22T19:56:08.071Z,82.86
2022-08-22T19:59:32.768Z,82.37
2022-08-22T20:03:07.766Z,82.49
2022-08-22T20:06:44.031Z,82.17
2022-08-22T20:10:09.580Z,81.92
2022-08-22T20:13:26.637Z,81.68
2022-08-22T20:17:08.744Z,81.53
2022-08-22T20:20:58.563Z,81.80
2022-08-22T20:24:08.033Z,81.81
2022-08-22T20:27:25.777Z,80.95
2022-08-22T20:30:40.837Z,81.08
2022-08-22T20:33:50.608Z,80.91
2022-08-22T20:37:16.150Z,80.75
2022-08-22T20:40:55.464Z,79.95
2022-08-22T20:44:21.740Z,80.06
2022-08-22T20:47:36.211Z,80.00
2022-08-22T20:50:46.982Z,80.09
2022-08-22T20:54:10.369Z,79.67
2022-08-22T20:57:35.772Z,79.76
2022-08-22T21:01:06.612Z,79.93
2022-08-22T21:04:49.229Z,82.95
2022-08-22T21:08:10.389Z,84.51
2022-08-22T21:11:37.774Z,84.74
2022-08-22T21:14:49.045Z,86.00
2022-08-22T21:17:57.370Z,86.74
2022-08-22T21:21:20.755Z,85.85
2022-08-22T21:24:26.465Z,85.67
2022-08-22T21:27:37.011Z,84.09
2022-08-22T21:30:49.575Z,83.18
2022-08-22T21:34:00.331Z,82.26
2022-08-22T21:37:25.830Z,81.87
2022-08-22T21:40:37.189Z,81.62
2022-08-22T21:43:48.086Z,80.56
2022-08-22T21:47:19.091Z,80.20
2022-08-22T21:50:41.574Z,80.44
2022-08-22T21:54:17.731Z,80.39
2022-08-22T21:57:38.082Z,80.12
2022-08-22T22:00:57.559Z,80.86
2022-08-22T22:04:09.577Z,80.24
2022-08-22T22:07:28.565Z,79.63
2022-08-22T22:10:39.220Z,80.09
2022-08-22T22:13:49.212Z,80.77
2022-08-22T22:16:54.843Z,81.26
2022-08-22T22:20:05.221Z,80.87
2022-08-22T22:23:14.691Z,81.50
2022-08-22T22:26:21.608Z,81.10
2022-08-22T22:29:27.932Z,80.65
2022-08-22T22:32:40.585Z,81.26
2022-08-22T22:35:52.464Z,80.63
2022-08-22T22:39:00.631Z,81.00
2022-08-22T22:42:10.048Z,80.58
2022-08-22T22:45:15.612Z,80.59
2022-08-22T22:48:24.028Z,80.30
2022-08-22T22:51:30.279Z,80.27
2022-08-22T22:54:40.400Z,80.65
2022-08-22T22:57:58.893Z,80.91
2022-08-22T23:01:13.218Z,81.34
2022-08-22T23:04:19.933Z,81.57
2022-08-22T23:07:28.605Z,81.98
2022-08-22T23:10:43.041Z,81.63
2022-08-22T23:13:51.149Z,81.92
2022-08-22T23:16:57.827Z,81.19
2022-08-22T23:20:19.473Z,81.07
2022-08-22T23:23:25.607Z,80.07
2022-08-22T23:26:36.628Z,80.27
2022-08-22T23:29:45.064Z,80.41
2022-08-22T23:32:52.117Z,80.16
2022-08-22T23:35:59.968Z,80.35
2022-08-22T23:39:12.550Z,79.81
2022-08-22T23:42:31.381Z,80.07
2022-08-22T23:45:37.161Z,80.46
2022-08-22T23:48:49.657Z,80.53
2022-08-22T23:52:02.634Z,80.66
2022-08-22T23:55:10.795Z,80.09
2022-08-22T23:58:29.891Z,80.57
